Tiros, Brazil
Current Conditions -  °F | °C
As of 6:00 PM on Monday 26 Jan 2015 (Local Time) from SBUR Reporting Station
Scattered Clouds Scattered Clouds  
Wind Chill: 77°   Ceiling: Unl
Heat Index: 79°   Visibility: 6mi
Dew Point: 64°   Wind: 1mph
Humidity: 65%   Direction: 80°E
Pressure: 29.97"   Gusts: NA
Location:  19°S, 45.96°W
Report Text: SBUR 262000Z 08001KT 9999 SCT040 25/18 Q1015
Loading
Personal Weather Stations






























Interactive Weather Map New forecast layout! Learn more

10-Day Weather Forecast

Advertisements
Track Severe Weather on mobile